Time;durP1;ratioP1;P1;durP2;ratioP2;P2;SDS_P1;SDS_P2;PMS_P1;PMS_P2;Temp;Humidity;BMP_temperature;BMP_pressure;BME280_temperature;BME280_humidity;BME280_pressure;Samples;Min_cycle;Max_cycle;Signal;HPM_P1;HPM_P2
2021/09/13 00:00:00;;;;;;;2.20;1.65;;;;;19.40;101800.00;;;;5056943;28;20194;-77
2021/09/13 00:02:29;;;;;;;1.45;1.35;;;;;19.50;101796.00;;;;5064400;28;20203;-77
2021/09/13 00:04:56;;;;;;;3.78;1.55;;;;;19.40;101791.00;;;;5051928;28;20667;-77
2021/09/13 00:07:23;;;;;;;1.95;1.60;;;;;19.40;101787.00;;;;5048430;28;20195;-77
2021/09/13 00:09:51;;;;;;;3.72;1.88;;;;;19.40;101790.00;;;;5047932;28;20219;-77
2021/09/13 00:12:18;;;;;;;2.03;1.83;;;;;19.40;101787.00;;;;5048398;28;20195;-77
2021/09/13 00:14:45;;;;;;;3.08;1.98;;;;;19.40;101785.00;;;;5051872;28;20210;-77
2021/09/13 00:17:14;;;;;;;2.30;2.10;;;;;19.40;101785.00;;;;5047243;28;20199;-77
2021/09/13 00:19:41;;;;;;;2.05;1.58;;;;;19.40;101786.00;;;;5047537;28;20207;-77
2021/09/13 00:22:08;;;;;;;2.00;1.55;;;;;19.30;101791.00;;;;5048069;28;20207;-77
2021/09/13 00:24:36;;;;;;;2.08;1.88;;;;;19.30;101783.00;;;;5047882;28;20207;-77
2021/09/13 00:27:03;;;;;;;3.67;1.95;;;;;19.30;101779.00;;;;5047618;28;20191;-77
2021/09/13 00:29:30;;;;;;;2.15;1.98;;;;;19.30;101787.00;;;;5046420;28;20227;-77
2021/09/13 00:31:57;;;;;;;1.85;1.70;;;;;19.30;101774.00;;;;5047136;28;20203;-77
2021/09/13 00:34:26;;;;;;;2.08;1.88;;;;;19.30;101779.00;;;;5047168;28;20759;-77
2021/09/13 00:36:54;;;;;;;1.98;1.40;;;;;19.30;101781.00;;;;5047478;28;20208;-77
2021/09/13 00:39:21;;;;;;;1.80;1.58;;;;;19.30;101781.00;;;;5053650;28;20223;-77
2021/09/13 00:41:48;;;;;;;2.10;1.80;;;;;19.20;101777.00;;;;5049130;28;20218;-77
2021/09/13 00:44:16;;;;;;;2.00;1.58;;;;;19.20;101777.00;;;;5051010;28;20658;-77
2021/09/13 00:46:43;;;;;;;2.70;2.00;;;;;19.20;101780.00;;;;5054080;28;20199;-77
2021/09/13 00:49:10;;;;;;;1.70;1.60;;;;;19.20;101775.00;;;;5063422;28;20198;-77
2021/09/13 00:51:39;;;;;;;1.67;1.52;;;;;19.20;101778.00;;;;5067029;28;20201;-77
2021/09/13 00:54:06;;;;;;;1.73;1.63;;;;;19.20;101779.00;;;;5066079;28;20198;-77
2021/09/13 00:56:34;;;;;;;2.03;1.55;;;;;19.20;101780.00;;;;5055526;28;20203;-77
2021/09/13 00:59:02;;;;;;;3.28;2.13;;;;;19.10;101775.00;;;;5059904;28;20179;-77
2021/09/13 01:01:29;;;;;;;2.40;2.17;;;;;19.10;101773.00;;;;5047042;28;20199;-77
2021/09/13 01:03:56;;;;;;;2.83;2.15;;;;;19.10;101772.00;;;;5054310;28;20195;-77
2021/09/13 01:06:23;;;;;;;2.20;2.00;;;;;19.10;101770.00;;;;5047942;28;20627;-77
2021/09/13 01:08:52;;;;;;;2.20;1.92;;;;;19.10;101775.00;;;;5048275;28;20202;-77
2021/09/13 01:11:20;;;;;;;2.22;1.90;;;;;19.10;101775.00;;;;5053279;28;20233;-77
2021/09/13 01:13:48;;;;;;;2.75;2.15;;;;;19.10;101777.00;;;;5057549;28;20666;-77
2021/09/13 01:16:16;;;;;;;5.10;2.60;;;;;19.00;101767.00;;;;5063986;28;20282;-77
2021/09/13 01:18:43;;;;;;;1.90;1.63;;;;;19.00;101768.00;;;;5058211;28;20208;-77
2021/09/13 01:21:10;;;;;;;2.33;2.00;;;;;19.00;101766.00;;;;5048356;28;20199;-78
2021/09/13 01:23:39;;;;;;;2.78;1.80;;;;;19.00;101772.00;;;;5047707;28;21219;-77
2021/09/13 01:26:07;;;;;;;2.20;2.00;;;;;19.00;101767.00;;;;5050331;28;20462;-78
2021/09/13 01:28:34;;;;;;;1.83;1.73;;;;;18.90;101772.00;;;;5065471;28;20223;-78
2021/09/13 01:31:02;;;;;;;2.28;1.90;;;;;18.90;101774.00;;;;5051590;28;20215;-78
2021/09/13 01:33:29;;;;;;;2.13;1.92;;;;;18.90;101778.00;;;;5063863;28;20183;-77
2021/09/13 01:35:56;;;;;;;6.38;1.52;;;;;18.90;101775.00;;;;5051456;28;20870;-78
2021/09/13 01:38:26;;;;;;;2.30;1.88;;;;;18.90;101775.00;;;;5050520;28;20223;-78
2021/09/13 01:40:55;;;;;;;2.05;1.85;;;;;18.90;101782.00;;;;5051313;28;20199;-78
2021/09/13 01:43:22;;;;;;;1.95;1.75;;;;;18.90;101776.00;;;;5051057;28;20195;-78
2021/09/13 01:45:49;;;;;;;2.38;1.65;;;;;18.80;101773.00;;;;5067891;28;20206;-77
2021/09/13 01:48:17;;;;;;;2.60;2.10;;;;;18.80;101774.00;;;;5057681;28;20731;-78
2021/09/13 01:50:44;;;;;;;2.13;1.92;;;;;18.80;101780.00;;;;5060401;28;20238;-78
2021/09/13 01:53:11;;;;;;;2.92;1.58;;;;;18.80;101769.00;;;;5062605;28;20664;-78
2021/09/13 01:55:39;;;;;;;2.88;1.60;;;;;18.80;101768.00;;;;5063682;28;20196;-77
2021/09/13 01:58:07;;;;;;;3.15;1.83;;;;;18.80;101779.00;;;;5069532;28;20198;-78
2021/09/13 02:00:34;;;;;;;2.25;1.77;;;;;18.80;101783.00;;;;5055963;28;20548;-77
2021/09/13 02:03:02;;;;;;;2.13;1.63;;;;;18.70;101775.00;;;;5059881;28;20203;-78
2021/09/13 02:05:29;;;;;;;3.33;1.70;;;;;18.80;101778.00;;;;5051322;28;20199;-78
2021/09/13 02:07:56;;;;;;;2.88;1.60;;;;;18.70;101775.00;;;;5051411;28;20192;-78
2021/09/13 02:10:24;;;;;;;2.10;1.88;;;;;18.70;101773.00;;;;5051175;28;20219;-78
2021/09/13 02:12:51;;;;;;;2.30;2.10;;;;;18.70;101772.00;;;;5056761;28;20203;-78
2021/09/13 02:15:19;;;;;;;1.88;1.63;;;;;18.70;101773.00;;;;5051739;28;20218;-78
2021/09/13 02:17:47;;;;;;;2.35;2.15;;;;;18.70;101774.00;;;;5051513;28;20203;-78
2021/09/13 02:20:14;;;;;;;2.20;2.00;;;;;18.70;101772.00;;;;5051188;28;20191;-77
2021/09/13 02:22:42;;;;;;;2.42;2.22;;;;;18.70;101765.00;;;;5049893;28;20200;-78
2021/09/13 02:25:10;;;;;;;2.42;2.22;;;;;18.60;101752.00;;;;5050380;28;20203;-78
2021/09/13 02:27:37;;;;;;;3.47;2.38;;;;;18.60;101759.00;;;;5051026;28;20215;-77
2021/09/13 02:30:06;;;;;;;3.33;2.50;;;;;18.60;101748.00;;;;5049749;28;20223;-78
2021/09/13 02:32:34;;;;;;;2.35;1.85;;;;;18.60;101765.00;;;;5049847;28;20196;-78
2021/09/13 02:35:04;;;;;;;2.30;2.10;;;;;18.60;101758.00;;;;5052927;28;20208;-78
2021/09/13 02:37:32;;;;;;;2.60;2.05;;;;;18.60;101755.00;;;;5070746;28;20284;-78
2021/09/13 02:40:00;;;;;;;3.47;3.03;;;;;18.60;101760.00;;;;5053355;28;20203;-78
2021/09/13 02:42:27;;;;;;;3.70;2.72;;;;;18.60;101762.00;;;;5049773;28;20196;-78
2021/09/13 02:44:54;;;;;;;2.95;2.60;;;;;18.60;101755.00;;;;5050732;28;20195;-78
2021/09/13 02:47:22;;;;;;;3.42;3.13;;;;;18.60;101746.00;;;;5050338;28;20208;-78
2021/09/13 02:49:50;;;;;;;3.47;3.17;;;;;18.60;101746.00;;;;5052475;28;20230;-78
2021/09/13 02:52:18;;;;;;;5.05;3.38;;;;;18.60;101737.00;;;;5053718;28;20223;-78
2021/09/13 02:54:45;;;;;;;3.95;3.05;;;;;18.60;101742.00;;;;5054590;28;20203;-78
2021/09/13 02:57:12;;;;;;;3.78;2.63;;;;;18.50;101744.00;;;;5068712;28;20214;-78
2021/09/13 02:59:39;;;;;;;4.45;2.63;;;;;18.50;101738.00;;;;5051722;28;20815;-78
2021/09/13 03:02:07;;;;;;;3.83;2.33;;;;;18.50;101735.00;;;;5050348;28;20195;-78
2021/09/13 03:04:34;;;;;;;2.85;2.40;;;;;18.50;101744.00;;;;5056061;28;20199;-78
2021/09/13 03:07:03;;;;;;;4.28;2.90;;;;;18.50;101745.00;;;;5050956;28;20183;-77
2021/09/13 03:09:30;;;;;;;4.00;2.85;;;;;18.50;101740.00;;;;5057547;28;20195;-78
2021/09/13 03:11:57;;;;;;;3.30;2.97;;;;;18.50;101745.00;;;;5069869;28;20226;-78
2021/09/13 03:14:24;;;;;;;3.63;2.88;;;;;18.50;101744.00;;;;5050903;28;20199;-78
2021/09/13 03:16:54;;;;;;;3.13;2.78;;;;;18.50;101747.00;;;;5050639;28;20210;-78
2021/09/13 03:19:21;;;;;;;2.75;2.17;;;;;18.50;101746.00;;;;5049352;28;20625;-78
2021/09/13 03:21:49;;;;;;;3.03;2.40;;;;;18.50;101743.00;;;;5049885;28;20191;-77
2021/09/13 03:24:18;;;;;;;3.70;3.30;;;;;18.50;101744.00;;;;5050135;28;20199;-78
2021/09/13 03:26:46;;;;;;;3.35;2.53;;;;;18.50;101748.00;;;;5057712;28;20199;-78
2021/09/13 03:29:14;;;;;;;3.20;2.42;;;;;18.50;101746.00;;;;5056710;28;20222;-78
2021/09/13 03:31:41;;;;;;;4.10;2.90;;;;;18.50;101743.00;;;;5049263;28;20219;-77
2021/09/13 03:34:09;;;;;;;3.47;2.55;;;;;18.50;101741.00;;;;5061394;28;20192;-78
2021/09/13 03:36:38;;;;;;;3.60;2.75;;;;;18.40;101746.00;;;;5049206;28;20191;-78
2021/09/13 03:39:06;;;;;;;3.45;2.55;;;;;18.40;101741.00;;;;5047929;28;20231;-78
2021/09/13 03:41:35;;;;;;;3.35;3.03;;;;;18.40;101737.00;;;;5048647;28;20780;-78
2021/09/13 03:44:04;;;;;;;6.13;2.45;;;;;18.40;101740.00;;;;5049014;28;20584;-78
2021/09/13 03:46:31;;;;;;;3.60;2.58;;;;;18.40;101746.00;;;;5048844;28;20196;-78
2021/09/13 03:48:58;;;;;;;3.33;2.63;;;;;18.40;101733.00;;;;5062900;28;20206;-78
2021/09/13 03:51:26;;;;;;;2.97;2.63;;;;;18.40;101744.00;;;;5061857;28;20776;-78
2021/09/13 03:53:53;;;;;;;3.35;2.72;;;;;18.40;101741.00;;;;5047915;28;20200;-78
2021/09/13 03:56:20;;;;;;;3.17;2.78;;;;;18.40;101738.00;;;;5056853;28;20203;-78
2021/09/13 03:58:49;;;;;;;5.97;3.25;;;;;18.40;101732.00;;;;5051837;28;20192;-78
2021/09/13 04:01:17;;;;;;;3.05;2.75;;;;;18.40;101737.00;;;;5048308;28;20204;-78
2021/09/13 04:03:46;;;;;;;3.92;3.10;;;;;18.40;101728.00;;;;5047920;28;20869;-78
2021/09/13 04:06:22;;;;;;;3.78;2.78;;;;;18.40;101727.00;;;;5048396;28;20274;-79
2021/09/13 04:09:37;;;;;;;5.05;2.75;;;;;18.40;101740.00;;;;5048492;28;20207;-79
2021/09/13 04:11:55;;;;;;;3.72;3.05;;;;;18.40;101737.00;;;;5048217;28;20603;-78
2021/09/13 04:14:25;;;;;;;3.25;2.78;;;;;18.30;101740.00;;;;5047468;28;20204;-78
2021/09/13 04:16:53;;;;;;;2.92;2.47;;;;;18.30;101734.00;;;;5047742;28;20191;-78
2021/09/13 04:19:22;;;;;;;3.58;2.22;;;;;18.30;101733.00;;;;5049392;28;20191;-78
2021/09/13 04:21:49;;;;;;;7.43;2.88;;;;;18.30;101726.00;;;;5048776;28;20200;-78
2021/09/13 04:24:17;;;;;;;5.43;2.55;;;;;18.30;101733.00;;;;5054669;28;20192;-79
2021/09/13 04:26:44;;;;;;;3.15;2.55;;;;;18.30;101739.00;;;;5048300;28;20214;-79
2021/09/13 04:29:12;;;;;;;3.00;2.65;;;;;18.30;101741.00;;;;5057202;28;20215;-78
2021/09/13 04:31:40;;;;;;;4.63;2.15;;;;;18.30;101740.00;;;;5047864;28;20227;-79
2021/09/13 04:34:08;;;;;;;3.70;2.30;;;;;18.30;101737.00;;;;5048070;28;20215;-78
2021/09/13 04:36:35;;;;;;;5.00;2.67;;;;;18.30;101736.00;;;;5054991;28;20592;-78
2021/09/13 04:39:02;;;;;;;2.40;2.15;;;;;18.30;101735.00;;;;5049872;28;20242;-78
2021/09/13 04:41:30;;;;;;;2.67;2.17;;;;;18.20;101743.00;;;;5047538;28;20192;-78
2021/09/13 04:43:57;;;;;;;3.15;2.38;;;;;18.20;101743.00;;;;5048215;28;20191;-79
2021/09/13 04:46:24;;;;;;;3.15;2.67;;;;;18.20;101741.00;;;;5047722;28;20203;-78
2021/09/13 04:48:53;;;;;;;3.70;2.35;;;;;18.20;101738.00;;;;5050798;28;20208;-78
2021/09/13 04:51:20;;;;;;;2.78;2.47;;;;;18.20;101738.00;;;;5052611;28;20219;-79
2021/09/13 04:53:47;;;;;;;2.50;2.10;;;;;18.20;101738.00;;;;5056320;28;20194;-78
2021/09/13 04:56:14;;;;;;;3.08;2.35;;;;;18.20;101735.00;;;;5060437;28;20250;-78
2021/09/13 04:58:42;;;;;;;3.13;2.42;;;;;18.20;101741.00;;;;5047570;28;20207;-78
2021/09/13 05:01:09;;;;;;;2.38;1.95;;;;;18.20;101742.00;;;;5057044;28;20254;-78
2021/09/13 05:03:36;;;;;;;3.25;2.25;;;;;18.20;101741.00;;;;5052721;28;20188;-78
2021/09/13 05:06:05;;;;;;;2.15;1.95;;;;;18.10;101750.00;;;;5063459;28;20623;-78
2021/09/13 05:08:32;;;;;;;3.60;2.45;;;;;18.10;101741.00;;;;5052494;28;20195;-78
2021/09/13 05:11:00;;;;;;;5.18;2.60;;;;;18.20;101755.00;;;;5056868;28;20226;-78
2021/09/13 05:13:27;;;;;;;3.58;2.33;;;;;18.20;101754.00;;;;5059806;28;20210;-78
2021/09/13 05:15:54;;;;;;;3.17;2.40;;;;;18.10;101756.00;;;;5058440;28;20214;-78
2021/09/13 05:18:22;;;;;;;3.85;2.60;;;;;18.20;101755.00;;;;5054156;28;20214;-78
2021/09/13 05:20:49;;;;;;;3.83;2.80;;;;;18.20;101759.00;;;;5061315;28;20199;-78
2021/09/13 05:23:18;;;;;;;5.60;4.83;;;;;18.10;101758.00;;;;5060751;28;20465;-77
2021/09/13 05:25:45;;;;;;;3.80;3.13;;;;;18.20;101759.00;;;;5055018;28;20290;-77
2021/09/13 05:28:12;;;;;;;4.03;3.13;;;;;18.30;101760.00;;;;5050571;28;20200;-78
2021/09/13 05:30:39;;;;;;;2.58;2.33;;;;;18.30;101767.00;;;;5048804;28;20218;-78
2021/09/13 05:33:06;;;;;;;3.42;2.55;;;;;18.30;101766.00;;;;5051446;28;20196;-78
2021/09/13 05:35:34;;;;;;;4.88;2.35;;;;;18.30;101769.00;;;;5049450;28;20202;-78
2021/09/13 05:38:01;;;;;;;3.70;2.30;;;;;18.30;101771.00;;;;5051502;28;20227;-78
2021/09/13 05:40:30;;;;;;;3.65;3.10;;;;;18.30;101767.00;;;;5051731;28;20202;-78
2021/09/13 05:43:01;;;;;;;3.22;2.50;;;;;18.40;101776.00;;;;5058895;28;20196;-77
2021/09/13 05:45:29;;;;;;;4.20;2.72;;;;;18.40;101765.00;;;;5059133;28;20198;-77
2021/09/13 05:47:57;;;;;;;4.82;2.60;;;;;18.40;101764.00;;;;5053043;28;20196;-77
2021/09/13 05:50:24;;;;;;;3.35;1.83;;;;;18.40;101769.00;;;;5056355;28;20195;-77
2021/09/13 05:52:52;;;;;;;4.05;2.47;;;;;18.40;101772.00;;;;5051350;28;20231;-77
2021/09/13 05:55:20;;;;;;;2.70;2.40;;;;;18.50;101775.00;;;;5056507;28;20200;-77
2021/09/13 05:57:49;;;;;;;5.07;2.80;;;;;18.50;101767.00;;;;5047396;28;20200;-77
2021/09/13 06:00:17;;;;;;;5.88;2.88;;;;;18.50;101768.00;;;;5050462;28;20192;-77
2021/09/13 06:02:45;;;;;;;2.97;2.60;;;;;18.50;101770.00;;;;5048775;28;20912;-77
2021/09/13 06:05:12;;;;;;;4.03;2.80;;;;;18.60;101774.00;;;;5045639;28;20219;-77
2021/09/13 06:07:39;;;;;;;3.22;2.38;;;;;18.60;101773.00;;;;5057666;28;20206;-77
2021/09/13 06:10:08;;;;;;;3.92;2.88;;;;;18.60;101777.00;;;;5069878;28;20198;-78
2021/09/13 06:12:35;;;;;;;3.22;2.78;;;;;18.60;101773.00;;;;5069638;28;20696;-78
2021/09/13 06:15:05;;;;;;;3.10;2.78;;;;;18.60;101777.00;;;;5067205;28;20381;-78
2021/09/13 06:17:32;;;;;;;3.22;2.42;;;;;18.60;101784.00;;;;5053273;28;20202;-79
2021/09/13 06:20:00;;;;;;;4.03;2.88;;;;;18.70;101779.00;;;;5070809;28;20194;-79
2021/09/13 06:22:27;;;;;;;8.18;3.35;;;;;18.70;101781.00;;;;5054511;28;20207;-78
2021/09/13 06:24:54;;;;;;;5.70;4.45;;;;;18.70;101781.00;;;;5064324;28;20446;-79
2021/09/13 06:27:21;;;;;;;5.68;3.45;;;;;18.90;101788.00;;;;5058565;28;20202;-79
2021/09/13 06:29:49;;;;;;;3.22;2.58;;;;;18.90;101779.00;;;;5066094;28;20211;-79
2021/09/13 06:32:17;;;;;;;2.83;2.40;;;;;19.00;101774.00;;;;5052025;28;20222;-79
2021/09/13 06:34:45;;;;;;;4.28;2.83;;;;;19.00;101775.00;;;;5056264;28;20203;-79
2021/09/13 06:37:12;;;;;;;4.35;3.08;;;;;19.10;101779.00;;;;5063259;28;20191;-79
2021/09/13 06:39:39;;;;;;;2.58;2.33;;;;;19.20;101783.00;;;;5052417;28;20210;-78
2021/09/13 06:42:07;;;;;;;2.67;2.22;;;;;19.20;101786.00;;;;5050301;28;20199;-78
2021/09/13 06:44:36;;;;;;;3.75;3.03;;;;;19.30;101791.00;;;;5050728;28;20202;-78
2021/09/13 06:47:05;;;;;;;2.92;2.63;;;;;19.40;101799.00;;;;5056093;28;20652;-78
2021/09/13 06:49:35;;;;;;;3.00;2.55;;;;;19.40;101804.00;;;;5066814;28;20192;-78
2021/09/13 06:52:03;;;;;;;2.67;2.13;;;;;19.50;101799.00;;;;5049812;28;20230;-78
2021/09/13 06:54:31;;;;;;;4.00;2.75;;;;;19.60;101798.00;;;;5053865;28;20200;-78
2021/09/13 06:56:59;;;;;;;3.45;2.70;;;;;19.60;101799.00;;;;5053516;28;20888;-78
2021/09/13 06:59:26;;;;;;;5.00;2.38;;;;;19.70;101805.00;;;;5053341;28;20207;-78
2021/09/13 07:01:54;;;;;;;3.38;2.42;;;;;19.70;101798.00;;;;5053061;28;20196;-78
2021/09/13 07:04:23;;;;;;;4.32;2.33;;;;;19.80;101798.00;;;;5052768;28;20191;-78
2021/09/13 07:06:52;;;;;;;4.75;2.60;;;;;19.80;101806.00;;;;5049253;28;20211;-79
2021/09/13 07:09:20;;;;;;;3.63;2.97;;;;;19.90;101804.00;;;;5053814;28;20250;-78
2021/09/13 07:11:47;;;;;;;4.15;2.55;;;;;20.00;101810.00;;;;5050419;28;20233;-79
2021/09/13 07:14:15;;;;;;;3.30;2.53;;;;;20.00;101806.00;;;;5054569;28;20200;-79
2021/09/13 07:16:42;;;;;;;3.78;2.42;;;;;20.10;101810.00;;;;5051095;28;20196;-79
2021/09/13 07:19:09;;;;;;;3.40;2.88;;;;;20.20;101817.00;;;;5047553;28;20188;-78
2021/09/13 07:21:36;;;;;;;4.28;2.33;;;;;20.20;101814.00;;;;5049912;28;21090;-78
2021/09/13 07:24:06;;;;;;;3.85;2.70;;;;;20.30;101812.00;;;;5052782;28;20203;-80
2021/09/13 07:26:33;;;;;;;3.58;2.53;;;;;20.40;101813.00;;;;5067727;28;20661;-78
2021/09/13 07:29:02;;;;;;;4.53;2.33;;;;;20.50;101815.00;;;;5059824;28;20650;-78
2021/09/13 07:31:30;;;;;;;2.95;2.63;;;;;20.70;101823.00;;;;5054527;28;20219;-78
2021/09/13 07:33:57;;;;;;;4.63;3.08;;;;;20.80;101820.00;;;;5050129;28;20187;-78
2021/09/13 07:36:24;;;;;;;3.03;2.72;;;;;20.90;101814.00;;;;5051673;28;20565;-79
2021/09/13 07:38:52;;;;;;;3.83;2.33;;;;;21.10;101819.00;;;;5053065;28;20237;-78
2021/09/13 07:41:20;;;;;;;4.75;2.53;;;;;21.20;101815.00;;;;5053053;28;20198;-78
2021/09/13 07:43:48;;;;;;;3.50;2.50;;;;;21.40;101819.00;;;;5051595;28;20331;-78
2021/09/13 07:46:15;;;;;;;3.58;2.70;;;;;21.50;101822.00;;;;5048275;28;20250;-78
2021/09/13 07:48:43;;;;;;;3.38;2.50;;;;;21.60;101827.00;;;;5048213;28;20208;-78
2021/09/13 07:51:10;;;;;;;3.28;2.30;;;;;21.70;101826.00;;;;5055353;28;20302;-79
2021/09/13 07:53:37;;;;;;;3.38;1.92;;;;;21.80;101828.00;;;;5048280;28;20231;-79
2021/09/13 07:56:05;;;;;;;3.47;2.05;;;;;22.00;101832.00;;;;5062878;28;20195;-79
2021/09/13 07:58:34;;;;;;;2.97;2.33;;;;;22.00;101836.00;;;;5056162;28;20199;-79
2021/09/13 08:01:01;;;;;;;3.13;1.95;;;;;22.20;101845.00;;;;5053159;28;20222;-79
2021/09/13 08:03:28;;;;;;;2.28;2.00;;;;;22.30;101850.00;;;;5049336;28;20204;-79
2021/09/13 08:05:55;;;;;;;2.60;2.00;;;;;22.30;101848.00;;;;5059400;28;20579;-79
2021/09/13 08:08:23;;;;;;;3.20;2.20;;;;;22.40;101856.00;;;;5048426;28;20204;-79
2021/09/13 08:10:50;;;;;;;3.95;2.28;;;;;22.40;101856.00;;;;5051145;28;20203;-79
2021/09/13 08:13:18;;;;;;;3.38;2.10;;;;;22.50;101861.00;;;;5062727;28;20227;-78
2021/09/13 08:15:46;;;;;;;2.17;1.52;;;;;22.50;101863.00;;;;5067472;28;20244;-78
2021/09/13 08:18:14;;;;;;;4.57;2.17;;;;;22.60;101864.00;;;;5068309;28;21019;-78
2021/09/13 08:20:41;;;;;;;3.00;1.40;;;;;22.60;101860.00;;;;5058332;28;20200;-78
2021/09/13 08:23:08;;;;;;;1.73;1.35;;;;;22.70;101865.00;;;;5048452;28;20204;-78
2021/09/13 08:25:36;;;;;;;3.28;1.92;;;;;22.70;101874.00;;;;5054905;28;20210;-78
2021/09/13 08:28:03;;;;;;;1.92;1.33;;;;;22.70;101870.00;;;;5053519;28;20196;-79
2021/09/13 08:30:32;;;;;;;3.05;1.63;;;;;22.80;101880.00;;;;5047234;28;20215;-79
2021/09/13 08:33:00;;;;;;;2.00;1.40;;;;;22.80;101874.00;;;;5046980;28;20224;-79
2021/09/13 08:35:27;;;;;;;1.85;1.30;;;;;22.90;101872.00;;;;5046078;28;20203;-78
2021/09/13 08:37:55;;;;;;;1.70;1.50;;;;;22.90;101877.00;;;;5053287;28;20238;-79
2021/09/13 08:40:22;;;;;;;1.85;1.33;;;;;23.00;101881.00;;;;5048032;28;20249;-78
2021/09/13 08:42:51;;;;;;;1.48;1.17;;;;;23.00;101878.00;;;;5060191;28;20194;-78
2021/09/13 08:45:25;;;;;;;1.20;1.10;;;;;23.10;101878.00;;;;5067637;28;20713;-78
2021/09/13 08:48:02;;;;;;;3.00;1.48;;;;;23.20;101878.00;;;;5062234;28;20206;-79
2021/09/13 08:50:38;;;;;;;1.90;1.65;;;;;23.30;101873.00;;;;5054781;28;20207;-79
2021/09/13 08:53:08;;;;;;;3.60;1.35;;;;;23.40;101865.00;;;;5065360;28;20231;-79
2021/09/13 08:55:35;;;;;;;2.13;1.60;;;;;23.40;101872.00;;;;5049854;28;20202;-79
2021/09/13 08:58:03;;;;;;;1.50;1.40;;;;;23.50;101865.00;;;;5049420;28;20203;-78
2021/09/13 09:00:32;;;;;;;2.13;1.80;;;;;23.60;101876.00;;;;5049834;28;20554;-79
2021/09/13 09:03:00;;;;;;;2.05;0.90;;;;;23.70;101876.00;;;;5049564;28;20722;-78
2021/09/13 09:05:30;;;;;;;1.40;1.30;;;;;23.80;101874.00;;;;5060997;28;20206;-78
2021/09/13 09:07:57;;;;;;;1.27;1.05;;;;;23.90;101884.00;;;;5067256;28;20293;-79
2021/09/13 09:10:26;;;;;;;3.10;1.20;;;;;24.00;101882.00;;;;5058087;28;20203;-78
2021/09/13 09:13:01;;;;;;;1.60;1.35;;;;;24.00;101886.00;;;;5047333;28;20219;-79
2021/09/13 09:15:29;;;;;;;3.05;1.55;;;;;24.10;101883.00;;;;5050585;28;20194;-79
2021/09/13 09:17:58;;;;;;;2.72;0.80;;;;;24.10;101880.00;;;;5067266;28;20210;-78
2021/09/13 09:20:26;;;;;;;1.23;0.77;;;;;24.20;101890.00;;;;5050965;28;20207;-79
2021/09/13 09:23:05;;;;;;;1.50;0.80;;;;;24.20;101877.00;;;;5047541;28;20202;-79
2021/09/13 09:25:36;;;;;;;2.20;0.85;;;;;24.30;101882.00;;;;5062809;28;20199;-79
2021/09/13 09:28:05;;;;;;;1.75;0.47;;;;;24.40;101880.00;;;;5057736;28;20227;-79
2021/09/13 09:30:38;;;;;;;1.70;0.70;;;;;24.50;101888.00;;;;5046886;28;20215;-78
2021/09/13 09:33:09;;;;;;;2.80;0.50;;;;;24.70;101884.00;;;;5051433;28;20224;-79
2021/09/13 09:35:45;;;;;;;1.40;0.50;;;;;24.70;101882.00;;;;5051383;28;20192;-78
2021/09/13 09:38:35;;;;;;;0.40;0.40;;;;;24.70;101888.00;;;;5060664;28;20250;-78
2021/09/13 09:41:10;;;;;;;1.63;0.50;;;;;24.80;101889.00;;;;5054448;28;20200;-79
2021/09/13 09:43:55;;;;;;;1.75;0.50;;;;;24.80;101894.00;;;;5053168;28;20202;-78
2021/09/13 09:46:23;;;;;;;2.50;0.63;;;;;24.90;101885.00;;;;5059310;28;20191;-79
2021/09/13 09:49:02;;;;;;;3.00;0.70;;;;;24.90;101890.00;;;;5059083;28;20195;-79
2021/09/13 09:51:30;;;;;;;1.23;0.47;;;;;24.90;101891.00;;;;5060486;28;20673;-79
2021/09/13 09:54:08;;;;;;;1.15;0.43;;;;;24.90;101892.00;;;;5057537;28;20329;-78
2021/09/13 09:56:36;;;;;;;1.42;0.57;;;;;24.90;101891.00;;;;5053031;28;20300;-79
2021/09/13 09:59:05;;;;;;;3.63;0.80;;;;;24.80;101887.00;;;;5058015;28;20195;-79
2021/09/13 10:01:38;;;;;;;2.10;0.57;;;;;24.70;101884.00;;;;5061920;28;20198;-79
2021/09/13 10:04:20;;;;;;;0.60;0.60;;;;;24.60;101890.00;;;;5058291;28;20198;-79
2021/09/13 10:06:50;;;;;;;1.02;0.75;;;;;24.70;101888.00;;;;5054381;28;20210;-79
2021/09/13 10:09:20;;;;;;;1.80;0.80;;;;;24.70;101879.00;;;;5056264;28;20653;-79
2021/09/13 10:11:49;;;;;;;0.80;0.50;;;;;24.60;101879.00;;;;5054365;28;20210;-79
2021/09/13 10:14:19;;;;;;;0.95;0.60;;;;;24.60;101872.00;;;;5057911;28;20234;-79
2021/09/13 10:16:46;;;;;;;1.65;0.60;;;;;24.60;101874.00;;;;5052669;28;20200;-79
2021/09/13 10:19:14;;;;;;;2.90;0.60;;;;;24.60;101873.00;;;;5053784;28;20200;-79
2021/09/13 10:21:43;;;;;;;4.13;0.90;;;;;24.50;101872.00;;;;5061215;28;20199;-79
2021/09/13 10:24:15;;;;;;;2.25;0.70;;;;;24.50;101862.00;;;;5055783;28;20203;-79
2021/09/13 10:26:48;;;;;;;1.73;0.90;;;;;24.50;101863.00;;;;5056585;28;20211;-79
2021/09/13 10:29:23;;;;;;;1.08;0.68;;;;;24.50;101861.00;;;;5056187;28;20265;-78
2021/09/13 10:32:02;;;;;;;1.70;1.10;;;;;24.50;101862.00;;;;5056703;28;21086;-79
2021/09/13 10:34:33;;;;;;;2.15;0.77;;;;;24.60;101863.00;;;;5053814;28;20221;-79
2021/09/13 10:37:02;;;;;;;1.65;0.80;;;;;24.60;101860.00;;;;5057929;28;20204;-78
2021/09/13 10:40:03;;;;;;;0.80;0.70;;;;;24.50;101855.00;;;;5057494;28;20225;-79
2021/09/13 10:42:43;;;;;;;1.98;1.10;;;;;24.60;101854.00;;;;5053594;28;20206;-79
2021/09/13 10:45:15;;;;;;;1.60;1.25;;;;;24.70;101857.00;;;;5065177;28;20252;-79
2021/09/13 10:47:44;;;;;;;1.95;1.17;;;;;24.70;101859.00;;;;5067378;28;20199;-79
2021/09/13 10:50:24;;;;;;;1.77;1.20;;;;;24.70;101860.00;;;;5063060;28;20198;-79
2021/09/13 10:52:53;;;;;;;2.47;1.00;;;;;24.70;101860.00;;;;5062156;28;20226;-79
2021/09/13 10:55:31;;;;;;;2.75;1.58;;;;;24.70;101863.00;;;;5066707;28;20203;-79
2021/09/13 10:58:11;;;;;;;1.63;1.38;;;;;24.70;101850.00;;;;5059740;28;20191;-79
2021/09/13 11:01:01;;;;;;;3.95;1.50;;;;;24.60;101847.00;;;;5069695;28;20195;-79
2021/09/13 11:03:42;;;;;;;1.90;1.70;;;;;24.70;101847.00;;;;5058657;28;20198;-79
2021/09/13 11:06:43;;;;;;;3.08;1.00;;;;;24.60;101847.00;;;;5054629;28;20199;-79
2021/09/13 11:09:25;;;;;;;3.65;1.10;;;;;24.60;101832.00;;;;5062681;28;20205;-79
2021/09/13 11:11:57;;;;;;;1.30;0.95;;;;;24.70;101842.00;;;;5061171;28;20738;-79
2021/09/13 11:14:31;;;;;;;3.00;1.10;;;;;24.70;101836.00;;;;5068312;28;20305;-79
2021/09/13 11:17:02;;;;;;;2.42;0.70;;;;;24.80;101835.00;;;;5067578;28;20282;-79
2021/09/13 11:19:30;;;;;;;1.50;0.93;;;;;24.80;101830.00;;;;5069557;28;20659;-79
2021/09/13 11:21:59;;;;;;;2.00;1.10;;;;;24.80;101836.00;;;;5059013;28;20673;-79
2021/09/13 11:24:29;;;;;;;2.08;0.88;;;;;24.80;101839.00;;;;5053783;28;20673;-80
2021/09/13 11:26:58;;;;;;;1.80;0.65;;;;;24.80;101833.00;;;;5055822;28;20280;-79
2021/09/13 11:29:29;;;;;;;2.05;0.65;;;;;24.80;101830.00;;;;5049129;28;20223;-79
2021/09/13 11:31:58;;;;;;;1.88;0.60;;;;;24.70;101831.00;;;;5053061;28;20206;-79
2021/09/13 11:34:28;;;;;;;1.10;0.65;;;;;24.70;101828.00;;;;5053828;28;20269;-79
2021/09/13 11:37:02;;;;;;;2.17;0.60;;;;;24.70;101829.00;;;;5049722;28;20203;-79
2021/09/13 11:39:31;;;;;;;1.80;0.95;;;;;24.80;101823.00;;;;5048926;28;20227;-79
2021/09/13 11:42:01;;;;;;;1.65;0.70;;;;;24.80;101825.00;;;;5051998;28;20557;-78
2021/09/13 11:44:36;;;;;;;2.47;0.88;;;;;24.80;101819.00;;;;5052532;28;20199;-79
2021/09/13 11:47:05;;;;;;;2.90;0.88;;;;;24.80;101824.00;;;;5049189;28;20206;-80
2021/09/13 11:49:35;;;;;;;0.98;0.80;;;;;24.80;101824.00;;;;5053556;28;20231;-79
2021/09/13 11:52:08;;;;;;;1.88;1.17;;;;;24.80;101818.00;;;;5053769;28;20286;-79
2021/09/13 11:54:44;;;;;;;1.92;1.00;;;;;24.70;101819.00;;;;5064674;28;20226;-80
2021/09/13 11:57:37;;;;;;;1.00;0.57;;;;;24.70;101823.00;;;;5065825;28;20229;-80
2021/09/13 12:00:14;;;;;;;0.93;0.60;;;;;24.70;101824.00;;;;5050925;28;20195;-79
2021/09/13 12:02:43;;;;;;;0.95;0.73;;;;;24.80;101819.00;;;;5059113;28;20711;-79
2021/09/13 12:05:13;;;;;;;2.13;1.10;;;;;24.80;101818.00;;;;5062331;28;20191;-79
2021/09/13 12:07:41;;;;;;;2.25;0.82;;;;;24.80;101813.00;;;;5064457;28;20187;-78
2021/09/13 12:10:09;;;;;;;3.28;1.30;;;;;24.90;101807.00;;;;5050059;28;20199;-78
2021/09/13 12:12:42;;;;;;;1.02;0.75;;;;;24.90;101804.00;;;;5049917;28;20218;-79
2021/09/13 12:15:13;;;;;;;1.80;0.73;;;;;25.00;101809.00;;;;5064055;28;20314;-79
2021/09/13 12:17:42;;;;;;;0.93;0.60;;;;;25.00;101812.00;;;;5065408;28;20207;-80